Time;durP1;ratioP1;P1;durP2;ratioP2;P2;SDS_P1;SDS_P2;PMS_P1;PMS_P2;Temp;Humidity;BMP_temperature;BMP_pressure;BME280_temperature;BME280_humidity;BME280_pressure;Samples;Min_cycle;Max_cycle;Signal;HPM_P1;HPM_P2
2022/02/11 00:08:25;;;;;;;12.40;10.52;;;;;;;6.78;88.26;100553.53;10307642;28;20056;-62
2022/02/11 00:13:27;;;;;;;12.85;10.40;;;;;;;6.54;90.33;100564.59;10311713;28;20049;-62
2022/02/11 00:18:29;;;;;;;7.55;6.25;;;;;;;6.70;87.85;100575.97;10315178;28;20149;-61
2022/02/11 00:23:37;;;;;;;3.35;2.90;;;;;;;7.02;84.71;100575.84;10315453;28;20565;-61
2022/02/11 00:33:59;;;;;;;1.67;1.00;;;;;;;6.82;82.68;100568.28;10317457;28;20129;-61
2022/02/11 00:39:22;;;;;;;1.13;0.60;;;;;;;6.81;82.70;100582.44;10315849;28;20536;-62
2022/02/11 01:05:30;;;;;;;2.65;0.30;;;;;;;6.62;78.89;100615.28;10312017;28;20054;-62
2022/02/11 01:10:33;;;;;;;0.40;0.17;;;;;;;6.35;76.51;100608.00;10313727;28;20101;-62
2022/02/11 01:15:37;;;;;;;0.43;0.10;;;;;;;6.44;77.11;100646.28;10311231;28;20054;-62
2022/02/11 01:26:24;;;;;;;0.13;0.10;;;;;;;6.22;77.19;100641.34;10312643;28;20046;-61
2022/02/11 01:31:38;;;;;;;0.50;0.28;;;;;;;6.22;76.57;100649.28;10309832;28;20544;-62
2022/02/11 01:53:22;;;;;;;0.75;0.22;;;;;;;6.03;77.56;100677.66;10314717;28;20046;-62
2022/02/11 02:14:12;;;;;;;0.40;0.20;;;;;;;6.17;76.46;100694.47;10311959;28;20046;-62
2022/02/11 02:19:54;;;;;;;0.30;0.20;;;;;;;6.09;74.69;100695.84;10312499;28;20050;-62
2022/02/11 02:31:40;;;;;;;0.90;0.20;;;;;;;5.32;77.56;100722.69;10300564;28;20052;-62
2022/02/11 02:57:22;;;;;;;0.57;0.40;;;;;;;5.99;73.62;100714.84;10312812;28;20042;-61
2022/02/11 03:50:24;;;;;;;1.08;0.70;;;;;;;5.89;71.93;100753.22;10313959;28;20041;-62
2022/02/11 04:59:34;;;;;;;5.55;3.67;;;;;;;4.96;72.07;100839.69;10312721;28;20515;-61
2022/02/11 05:04:36;;;;;;;3.88;3.08;;;;;;;5.07;73.05;100862.09;10314852;28;20398;-62
2022/02/11 05:09:37;;;;;;;5.13;3.88;;;;;;;5.22;73.25;100857.84;10315932;28;20177;-61
2022/02/11 05:14:38;;;;;;;4.68;3.78;;;;;;;5.30;71.56;100867.13;10315318;28;20050;-62
2022/02/11 05:19:40;;;;;;;5.22;3.67;;;;;;;5.41;71.28;100885.06;10315632;28;20096;-63
2022/02/11 05:24:41;;;;;;;6.55;3.88;;;;;;;5.29;71.78;100883.03;10317108;28;20054;-62
2022/02/11 05:29:42;;;;;;;4.85;3.67;;;;;;;5.25;72.03;100892.84;10310810;28;20455;-62
2022/02/11 05:34:44;;;;;;;7.60;3.85;;;;;;;5.04;72.37;100885.97;10318375;28;20054;-62
2022/02/11 05:39:45;;;;;;;6.90;4.15;;;;;;;5.06;73.74;100873.56;10313583;28;20046;-62
2022/02/11 05:44:47;;;;;;;5.10;3.72;;;;;;;5.23;72.57;100900.00;10310628;28;20048;-60
2022/02/11 05:49:48;;;;;;;8.15;3.60;;;;;;;5.19;72.30;100890.53;10311771;28;20060;-62
2022/02/11 05:54:50;;;;;;;4.68;3.90;;;;;;;5.00;73.24;100916.94;10299508;28;20159;-62
2022/02/11 05:59:51;;;;;;;5.45;3.88;;;;;;;4.79;74.02;100889.78;10301311;28;20514;-62
2022/02/11 06:04:53;;;;;;;5.25;3.80;;;;;;;4.85;74.02;100922.91;10302855;28;20061;-62
2022/02/11 06:09:54;;;;;;;6.05;4.28;;;;;;;4.68;74.06;100915.78;10303905;28;20064;-62
2022/02/11 06:14:55;;;;;;;7.68;3.95;;;;;;;4.67;74.85;100929.88;10311047;28;20056;-63
2022/02/11 06:20:00;;;;;;;6.53;3.88;;;;;;;4.51;75.28;100932.34;10308899;28;20534;-62
2022/02/11 06:25:04;;;;;;;5.80;4.28;;;;;;;4.27;76.17;100931.66;10307092;28;20062;-63
2022/02/11 06:30:06;;;;;;;6.55;3.85;;;;;;;4.13;75.95;100933.09;10308986;28;20065;-62
2022/02/11 06:35:11;;;;;;;4.80;4.18;;;;;;;3.89;76.52;100935.00;10314628;28;20054;-63
2022/02/11 06:40:14;;;;;;;5.45;4.20;;;;;;;4.09;76.43;100970.19;10311447;28;20054;-63
2022/02/11 06:45:15;;;;;;;5.00;3.45;;;;;;;3.99;76.15;100964.44;10305669;28;20058;-62
2022/02/11 06:50:17;;;;;;;6.10;4.10;;;;;;;3.97;76.68;100968.94;10308494;28;20428;-61
2022/02/11 06:55:18;;;;;;;7.47;3.95;;;;;;;4.11;75.38;100977.09;10306873;28;20437;-63
2022/02/11 07:00:20;;;;;;;6.32;4.13;;;;;;;3.87;75.72;100958.78;10305688;28;20053;-62
2022/02/11 07:05:23;;;;;;;6.45;3.53;;;;;;;3.87;76.96;100998.28;10313309;28;20051;-63
2022/02/11 07:10:25;;;;;;;8.43;3.75;;;;;;;4.12;76.14;101010.44;10303242;28;20163;-62
2022/02/11 07:15:26;;;;;;;5.97;3.40;;;;;;;4.09;75.42;100997.38;10307045;28;20131;-61
2022/02/11 07:20:28;;;;;;;6.35;3.78;;;;;;;4.20;74.65;101024.16;10302891;28;20054;-62
2022/02/11 07:25:32;;;;;;;5.95;3.33;;;;;;;4.19;75.19;101038.25;10307192;28;20077;-63
2022/02/11 07:30:34;;;;;;;4.45;3.47;;;;;;;4.00;74.85;101018.84;10326395;28;20137;-63
2022/02/11 07:35:35;;;;;;;7.57;3.42;;;;;;;4.16;74.12;101008.50;10338689;28;20072;-60
2022/02/11 07:40:39;;;;;;;5.60;3.20;;;;;;;4.43;73.72;101051.34;10336423;28;20060;-61
2022/02/11 07:45:40;;;;;;;6.60;3.95;;;;;;;4.28;73.90;101051.97;10335462;28;20068;-61
2022/02/11 07:50:42;;;;;;;5.60;3.53;;;;;;;4.37;74.23;101059.50;10343405;28;20058;-62
2022/02/11 07:55:44;;;;;;;5.65;3.95;;;;;;;4.45;72.54;101078.47;10336683;28;21761;-61
2022/02/11 08:00:46;;;;;;;7.32;3.85;;;;;;;4.40;73.29;101083.09;10333680;28;20129;-62
2022/02/11 08:05:47;;;;;;;5.97;4.18;;;;;;;4.51;73.46;101046.59;10364672;28;20061;-62
2022/02/11 08:10:49;;;;;;;5.30;3.25;;;;;;;5.03;72.48;101090.97;10350764;28;20072;-62
2022/02/11 08:15:51;;;;;;;5.90;4.00;;;;;;;5.56;71.27;101099.19;10338114;28;20056;-62
2022/02/11 08:20:53;;;;;;;4.47;3.28;;;;;;;5.71;69.84;101109.03;10337852;28;20958;-62
2022/02/11 08:25:59;;;;;;;5.00;3.35;;;;;;;5.47;70.33;101076.69;10333895;28;20042;-63
2022/02/11 08:31:00;;;;;;;8.73;4.00;;;;;;;5.47;70.15;101127.72;10339353;28;20556;-61
2022/02/11 08:36:02;;;;;;;3.90;3.47;;;;;;;5.55;70.71;101130.00;10340119;28;21086;-60
2022/02/11 08:41:05;;;;;;;8.18;4.60;;;;;;;5.61;71.30;101150.84;10344880;28;20057;-60
2022/02/11 08:46:08;;;;;;;7.28;3.58;;;;;;;5.64;71.03;101161.31;10350865;28;20132;-62
2022/02/11 08:51:09;;;;;;;6.88;3.83;;;;;;;5.72;69.31;101157.44;10344002;28;20061;-61
2022/02/11 08:56:11;;;;;;;5.78;3.90;;;;;;;5.69;68.52;101155.81;10339543;28;20191;-61
2022/02/11 09:01:12;;;;;;;4.72;3.22;;;;;;;5.79;68.37;101158.88;10340740;28;20049;-61
2022/02/11 09:06:15;;;;;;;9.93;3.88;;;;;;;5.88;68.26;101153.16;10343275;28;20068;-61
2022/02/11 09:11:20;;;;;;;6.63;3.53;;;;;;;6.27;67.36;101169.88;10339288;28;20440;-63
2022/02/11 09:16:21;;;;;;;7.43;2.85;;;;;;;6.39;67.13;101174.56;10341777;28;20152;-63
2022/02/11 09:21:23;;;;;;;8.48;3.60;;;;;;;6.27;66.81;101213.03;10341951;28;20749;-61
2022/02/11 09:26:24;;;;;;;6.57;2.83;;;;;;;6.46;67.88;101218.31;10339204;28;20061;-61
2022/02/11 09:31:27;;;;;;;6.13;3.08;;;;;;;6.87;66.07;101204.00;10343361;28;20106;-60
2022/02/11 09:36:34;;;;;;;6.68;3.03;;;;;;;7.33;63.99;101209.63;10317475;28;20141;-61
2022/02/11 09:41:36;;;;;;;7.05;2.90;;;;;;;7.61;62.01;101226.72;10308718;28;20057;-61
2022/02/11 09:46:38;;;;;;;6.63;3.13;;;;;;;7.83;62.42;101238.84;10312570;28;20060;-61
2022/02/11 09:51:38;;;;;;;6.17;2.27;;;;;;;7.59;61.95;101236.53;10305476;28;20034;-61
2022/02/11 09:56:40;;;;;;;4.25;1.83;;;;;;;7.08;63.85;101263.81;10302525;28;20339;-61
2022/02/11 10:01:43;;;;;;;6.20;1.95;;;;;;;6.87;64.81;101241.06;10300024;28;20280;-61
2022/02/11 10:06:48;;;;;;;4.60;1.90;;;;;;;8.17;62.29;101260.88;10308425;28;20365;-61
2022/02/11 10:11:51;;;;;;;6.18;2.00;;;;;;;10.99;51.86;101264.44;10306742;28;20055;-62
2022/02/11 10:16:58;;;;;;;4.97;1.65;;;;;;;9.30;54.80;101282.84;10303483;28;20563;-60
2022/02/11 10:22:18;;;;;;;4.25;1.58;;;;;;;8.35;57.42;101289.06;10317896;28;20659;-61
2022/02/11 10:27:32;;;;;;;5.57;1.52;;;;;;;8.96;56.40;101295.44;10305016;28;20045;-61
2022/02/11 10:32:49;;;;;;;5.07;1.80;;;;;;;8.43;56.54;101302.75;10320135;28;21787;-62
2022/02/11 10:38:08;;;;;;;5.35;2.03;;;;;;;8.01;57.32;101321.84;10307539;28;20042;-61
2022/02/11 10:43:29;;;;;;;3.53;1.15;;;;;;;7.81;55.95;101328.16;10315360;28;21080;-63
2022/02/11 10:48:37;;;;;;;7.43;2.03;;;;;;;7.78;56.23;101311.50;10304762;28;20109;-61
2022/02/11 10:53:41;;;;;;;6.05;1.70;;;;;;;7.60;57.86;101352.22;10305682;28;20077;-61
2022/02/11 10:58:53;;;;;;;3.80;1.48;;;;;;;7.12;58.92;101349.25;10309180;28;20762;-61
2022/02/11 11:03:57;;;;;;;5.30;2.10;;;;;;;7.21;60.75;101353.25;10311194;28;20062;-61
2022/02/11 11:08:59;;;;;;;5.00;1.35;;;;;;;6.76;63.56;101355.38;10307097;28;20061;-62
2022/02/11 11:14:03;;;;;;;5.03;2.25;;;;;;;7.26;65.12;101372.41;10302648;28;20140;-63
2022/02/11 11:19:05;;;;;;;5.72;2.05;;;;;;;9.97;55.81;101335.59;10304804;28;20638;-62
2022/02/11 11:24:07;;;;;;;3.60;1.40;;;;;;;9.76;55.36;101358.16;10302771;28;20054;-61
2022/02/11 11:29:10;;;;;;;3.85;1.60;;;;;;;13.96;44.30;101344.75;10307969;28;20065;-61
2022/02/11 11:34:14;;;;;;;5.50;2.03;;;;;;;18.80;34.83;101372.66;10304988;28;20057;-62
2022/02/11 11:39:18;;;;;;;4.45;2.38;;;;;;;19.82;30.48;101379.63;10300268;28;20181;-63
2022/02/11 11:44:24;;;;;;;3.42;1.33;;;;;;;13.48;39.85;101384.13;10302189;28;20081;-61
2022/02/11 11:49:27;;;;;;;3.80;1.70;;;;;;;10.52;47.09;101399.72;10325057;28;20050;-61
2022/02/11 11:54:28;;;;;;;6.65;2.45;;;;;;;9.38;48.43;101386.03;10334873;28;20053;-60
2022/02/11 11:59:51;;;;;;;7.47;2.20;;;;;;;9.88;49.63;101400.84;10333492;28;20053;-61
2022/02/11 12:05:00;;;;;;;7.70;2.03;;;;;;;10.55;48.86;101400.41;10336440;28;20057;-62
2022/02/11 12:10:04;;;;;;;7.72;3.45;;;;;;;9.83;49.23;101396.72;10337746;28;20252;-62
2022/02/11 12:15:09;;;;;;;4.70;1.98;;;;;;;10.70;46.48;101416.34;10345867;28;20087;-63
2022/02/11 12:20:10;;;;;;;5.10;1.67;;;;;;;10.19;46.74;101422.97;10347421;28;20053;-63
2022/02/11 12:30:42;;;;;;;5.55;1.70;;;;;;;10.11;45.86;101427.88;10359338;28;20045;-61
2022/02/11 12:35:47;;;;;;;5.50;1.48;;;;;;;8.95;47.28;101420.34;10344213;28;20523;-60
2022/02/11 12:40:54;;;;;;;5.70;1.47;;;;;;;9.44;46.94;101443.28;10342095;28;20570;-60
2022/02/11 12:45:55;;;;;;;4.30;1.63;;;;;;;15.99;33.63;101433.03;10341851;28;20188;-65
2022/02/11 12:50:57;;;;;;;5.85;1.67;;;;;;;18.88;29.00;101429.41;10343384;28;20054;-65
2022/02/11 12:55:58;;;;;;;5.30;1.33;;;;;;;22.85;23.32;101417.47;10343483;28;20046;-60
2022/02/11 13:01:00;;;;;;;5.80;1.13;;;;;;;21.89;24.17;101418.19;10339341;28;20053;-60
2022/02/11 13:06:04;;;;;;;4.90;1.40;;;;;;;15.44;32.27;101431.28;10343640;28;20057;-62
2022/02/11 13:11:07;;;;;;;7.90;2.85;;;;;;;12.87;38.19;101439.25;10345144;28;20042;-61
2022/02/11 13:16:09;;;;;;;6.63;2.07;;;;;;;11.71;39.57;101442.75;10345818;28;20516;-62
2022/02/11 13:21:10;;;;;;;4.05;2.25;;;;;;;14.00;37.79;101440.88;10343123;28;20121;-60
2022/02/11 13:26:14;;;;;;;6.10;2.08;;;;;;;13.22;38.03;101459.06;10341206;28;20715;-63
2022/02/11 13:31:17;;;;;;;8.90;2.30;;;;;;;12.36;39.58;101474.00;10343801;28;20136;-61
2022/02/11 13:36:24;;;;;;;5.03;2.13;;;;;;;18.90;29.56;101476.00;10339242;28;20045;-63
2022/02/11 13:41:32;;;;;;;6.93;2.47;;;;;;;22.02;24.92;101476.44;10338847;28;20064;-61
2022/02/11 13:46:36;;;;;;;7.47;2.13;;;;;;;16.98;30.14;101475.66;10343333;28;20167;-61
2022/02/11 13:51:39;;;;;;;6.20;2.55;;;;;;;17.01;29.64;101487.00;10321709;28;20059;-60
2022/02/11 13:56:46;;;;;;;5.43;1.90;;;;;;;15.80;32.84;101500.88;10302546;28;20200;-60
2022/02/11 14:01:48;;;;;;;4.72;1.27;;;;;;;20.99;24.63;101497.34;10310096;28;20037;-61
2022/02/11 14:06:52;;;;;;;6.78;1.35;;;;;;;22.22;21.99;101504.94;10313002;28;20065;-61
2022/02/11 14:11:55;;;;;;;3.65;1.50;;;;;;;24.47;19.38;101510.88;10306731;28;20141;-62
2022/02/11 14:17:04;;;;;;;3.53;1.77;;;;;;;25.13;17.56;101510.19;10309478;28;20066;-60
2022/02/11 14:22:05;;;;;;;3.70;1.13;;;;;;;25.00;18.30;101505.41;10311555;28;20144;-62
2022/02/11 14:27:07;;;;;;;5.43;1.95;;;;;;;26.17;17.42;101500.06;10307853;28;20052;-61
2022/02/11 14:32:09;;;;;;;1.88;0.90;;;;;;;24.86;17.54;101512.53;10299953;28;20046;-62
2022/02/11 14:37:11;;;;;;;6.25;1.63;;;;;;;24.57;17.26;101516.03;10310681;28;20058;-61
2022/02/11 14:42:12;;;;;;;3.78;1.35;;;;;;;20.08;21.37;101530.13;10319844;28;20075;-61
2022/02/11 14:47:14;;;;;;;3.60;1.50;;;;;;;20.63;21.67;101529.91;10309553;28;20054;-61
2022/02/11 14:52:16;;;;;;;5.70;1.98;;;;;;;23.01;19.99;101527.88;10302449;28;20054;-61
2022/02/11 14:57:18;;;;;;;5.60;1.65;;;;;;;22.00;21.27;101528.13;10312078;28;20739;-60
2022/02/11 15:02:19;;;;;;;10.07;1.80;;;;;;;23.76;20.40;101540.97;10300583;28;20046;-63
2022/02/11 15:07:21;;;;;;;;;;;;;;;24.18;18.84;101530.69;10305928;28;20054;-65
2022/02/11 15:12:22;;;;;;;4.35;1.20;;;;;;;22.40;20.66;101544.63;10299844;28;19936;-62
2022/02/11 15:17:23;;;;;;;6.83;1.60;;;;;;;19.35;22.15;101561.56;10306736;28;20050;-61
2022/02/11 15:22:25;;;;;;;4.78;1.25;;;;;;;17.09;25.40;101572.41;10303425;28;20054;-61
2022/02/11 15:27:31;;;;;;;5.00;1.42;;;;;;;13.21;29.99;101574.97;10310699;28;20057;-61
2022/02/11 15:32:32;;;;;;;6.30;2.35;;;;;;;11.73;32.80;101574.22;10315209;28;20045;-61
2022/02/11 15:37:34;;;;;;;6.72;1.73;;;;;;;10.69;34.38;101582.41;10316594;28;20054;-61
2022/02/11 15:42:35;;;;;;;5.88;2.08;;;;;;;10.42;35.01;101593.75;10314388;28;20042;-60
2022/02/11 15:47:37;;;;;;;5.30;1.58;;;;;;;9.57;36.66;101592.31;10317593;28;20056;-61
2022/02/11 15:52:38;;;;;;;5.20;1.50;;;;;;;9.34;36.55;101586.47;10315989;28;20042;-61
2022/02/11 15:57:40;;;;;;;5.82;1.90;;;;;;;9.13;37.75;101599.94;10317263;28;20065;-61
2022/02/11 16:02:42;;;;;;;6.53;1.83;;;;;;;8.71;38.83;101614.53;10318630;28;20058;-61
2022/02/11 16:07:43;;;;;;;6.68;2.08;;;;;;;8.56;38.63;101615.31;10322121;28;22702;-62
2022/02/11 16:12:45;;;;;;;8.63;2.10;;;;;;;8.45;39.24;101621.13;10320201;28;20053;-60
2022/02/11 16:18:00;;;;;;;7.43;2.08;;;;;;;8.53;39.13;101618.09;10322763;28;25435;-61
2022/02/11 16:23:06;;;;;;;8.55;1.92;;;;;;;8.37;39.79;101626.78;10324298;28;20159;-63
2022/02/11 16:28:09;;;;;;;8.88;2.33;;;;;;;8.07;41.02;101619.38;10310361;28;20054;-62
2022/02/11 16:33:11;;;;;;;5.22;1.83;;;;;;;8.32;41.35;101647.41;10318591;28;20057;-60
2022/02/11 16:38:13;;;;;;;6.55;1.67;;;;;;;7.80;41.65;101658.69;10312154;28;20053;-61
2022/02/11 16:43:14;;;;;;;7.93;2.60;;;;;;;7.82;41.24;101661.25;10319432;28;20070;-63
2022/02/11 16:48:16;;;;;;;8.20;2.75;;;;;;;7.21;42.27;101679.00;10317146;28;20050;-62
2022/02/11 16:53:17;;;;;;;5.18;1.73;;;;;;;7.07;41.87;101675.16;10323975;28;20675;-62
2022/02/11 16:58:18;;;;;;;4.47;1.80;;;;;;;7.53;42.24;101695.25;10307005;28;20505;-62
2022/02/11 17:03:20;;;;;;;5.80;2.53;;;;;;;7.72;42.34;101708.56;10313103;28;20455;-63
2022/02/11 17:08:21;;;;;;;7.07;2.30;;;;;;;7.88;42.96;101703.38;10310650;28;20054;-61
2022/02/11 17:13:23;;;;;;;5.05;2.22;;;;;;;7.50;41.57;101719.25;10315495;28;20057;-60
2022/02/11 17:18:25;;;;;;;5.07;2.28;;;;;;;7.51;42.16;101699.78;10312160;28;20130;-61
2022/02/11 17:23:26;;;;;;;5.57;2.03;;;;;;;7.74;42.80;101734.03;10309638;28;20065;-62
2022/02/11 17:28:27;;;;;;;8.25;2.90;;;;;;;7.87;41.36;101739.66;10310648;28;20054;-62
2022/02/11 17:33:29;;;;;;;6.15;2.28;;;;;;;7.72;41.35;101738.56;10317587;28;20060;-61
2022/02/11 17:38:31;;;;;;;7.55;2.08;;;;;;;7.58;41.78;101743.59;10312382;28;20213;-62
2022/02/11 17:43:32;;;;;;;9.23;2.30;;;;;;;7.56;41.30;101738.38;10320041;28;20078;-61
2022/02/11 17:48:34;;;;;;;5.22;2.90;;;;;;;7.73;41.92;101756.19;10314774;28;20077;-60
2022/02/11 17:53:35;;;;;;;6.82;3.42;;;;;;;7.78;41.93;101771.88;10309534;28;20066;-61
2022/02/11 17:58:37;;;;;;;6.03;2.40;;;;;;;7.59;41.88;101761.22;10313885;28;20053;-60
2022/02/11 18:03:38;;;;;;;8.30;3.03;;;;;;;7.59;42.57;101766.53;10313874;28;20419;-61
2022/02/11 18:08:40;;;;;;;4.55;2.35;;;;;;;7.56;43.39;101771.97;10310773;28;20074;-64
2022/02/11 18:13:41;;;;;;;7.90;2.88;;;;;;;7.50;44.19;101774.88;10310442;28;20105;-63
2022/02/11 18:18:43;;;;;;;5.72;2.40;;;;;;;7.31;44.54;101773.03;10315824;28;20049;-61
2022/02/11 18:23:44;;;;;;;10.52;3.83;;;;;;;7.13;44.63;101776.44;10313544;28;20073;-60
2022/02/11 18:28:47;;;;;;;12.13;8.20;;;;;;;6.92;44.87;101784.38;10309415;28;20136;-62
2022/02/11 18:33:49;;;;;;;6.68;2.88;;;;;;;6.36;45.01;101773.31;10312687;28;20133;-61
2022/02/11 18:38:50;;;;;;;6.40;4.10;;;;;;;6.44;46.18;101774.78;10312193;28;20046;-63
2022/02/11 18:43:52;;;;;;;6.57;3.40;;;;;;;6.76;45.09;101775.31;10313083;28;20056;-62
2022/02/11 18:48:53;;;;;;;5.28;3.03;;;;;;;6.87;45.05;101787.16;10311468;28;20046;-61
2022/02/11 18:53:54;;;;;;;5.53;2.88;;;;;;;6.95;45.50;101808.06;10313242;28;20727;-64
2022/02/11 19:00:25;;;;;;;5.93;3.20;;;;;;;6.86;45.00;101803.13;10319347;28;20082;-62
2022/02/11 19:04:19;;;;;;;8.63;3.22;;;;;;;6.76;45.09;101807.09;10340132;28;20061;-62
2022/02/11 19:09:20;;;;;;;8.88;3.00;;;;;;;6.73;45.13;101819.50;10330040;28;20197;-62
2022/02/11 19:14:22;;;;;;;5.35;3.33;;;;;;;6.62;46.38;101813.78;10312888;28;20056;-61
2022/02/11 19:19:23;;;;;;;7.03;3.67;;;;;;;6.64;45.77;101816.38;10313142;28;20050;-61
2022/02/11 19:24:25;;;;;;;7.95;2.95;;;;;;;6.61;46.20;101825.28;10311873;28;20144;-65
2022/02/11 19:29:26;;;;;;;8.00;2.80;;;;;;;6.64;46.74;101851.63;10312351;28;20675;-61
2022/02/11 19:34:27;;;;;;;9.43;3.13;;;;;;;6.49;46.17;101836.34;10310361;28;20065;-61
2022/02/11 19:39:29;;;;;;;8.95;3.58;;;;;;;6.45;46.23;101861.16;10308795;28;20053;-62
2022/02/11 19:44:31;;;;;;;8.88;4.28;;;;;;;6.18;47.69;101829.53;10306325;28;20054;-61
2022/02/11 19:49:36;;;;;;;11.50;6.30;;;;;;;6.42;47.11;101866.56;10308593;28;20084;-62
2022/02/11 19:54:39;;;;;;;7.68;3.72;;;;;;;6.47;47.01;101881.38;10305556;28;20045;-62
2022/02/11 19:59:41;;;;;;;8.32;4.70;;;;;;;6.30;47.11;101871.38;10327118;28;21606;-61
2022/02/11 20:04:45;;;;;;;8.20;3.72;;;;;;;6.36;48.70;101883.53;10309319;28;20849;-61
2022/02/11 20:09:49;;;;;;;3.83;2.83;;;;;;;6.21;47.54;101889.38;10307087;28;20152;-61
2022/02/11 20:14:50;;;;;;;32.20;20.93;;;;;;;6.16;48.37;101890.41;10309839;28;20116;-61
2022/02/11 20:19:52;;;;;;;15.10;8.98;;;;;;;6.23;49.03;101896.34;10311850;28;20826;-63
2022/02/11 20:24:53;;;;;;;13.20;7.13;;;;;;;6.16;49.17;101897.50;10310722;28;20053;-61
2022/02/11 20:29:55;;;;;;;9.65;6.25;;;;;;;5.93;48.87;101880.63;10313050;28;20050;-60
2022/02/11 20:34:57;;;;;;;10.93;5.60;;;;;;;6.00;49.40;101903.31;10317729;28;20145;-61
2022/02/11 20:39:59;;;;;;;13.20;6.25;;;;;;;5.82;49.72;101898.63;10318066;28;20064;-62
2022/02/11 20:45:00;;;;;;;7.90;5.43;;;;;;;5.96;50.13;101911.34;10313059;28;20108;-62
2022/02/11 20:55:22;;;;;;;10.20;4.72;;;;;;;6.00;50.78;101913.91;10315732;28;20048;-61
2022/02/11 21:00:24;;;;;;;14.23;5.95;;;;;;;5.97;50.06;101911.34;10315077;28;20062;-61
2022/02/11 21:05:26;;;;;;;11.18;6.72;;;;;;;5.94;51.39;101910.56;10315002;28;20058;-62
2022/02/11 21:10:27;;;;;;;9.10;6.07;;;;;;;5.61;50.58;101916.91;10314609;28;20062;-61
2022/02/11 21:15:29;;;;;;;11.05;5.97;;;;;;;5.66;50.94;101930.84;10314953;28;20634;-61
2022/02/11 21:20:31;;;;;;;9.40;5.95;;;;;;;5.60;51.35;101925.78;10314478;28;20050;-61
2022/02/11 21:25:33;;;;;;;10.80;6.82;;;;;;;5.82;51.10;101933.88;10312472;28;20084;-61
2022/02/11 21:30:36;;;;;;;11.82;7.03;;;;;;;5.60;51.54;101936.34;10311003;28;20056;-61
2022/02/11 21:35:37;;;;;;;13.65;8.15;;;;;;;5.44;53.18;101924.56;10312747;28;20193;-62
2022/02/11 21:40:38;;;;;;;17.02;9.60;;;;;;;5.44;53.52;101930.69;10312106;28;20140;-61
2022/02/11 21:45:41;;;;;;;14.52;8.23;;;;;;;5.49;54.28;101949.91;10308264;28;20050;-62
2022/02/11 21:50:43;;;;;;;14.25;7.85;;;;;;;5.43;54.72;101933.38;10311943;28;20061;-62
2022/02/11 21:55:47;;;;;;;11.85;7.90;;;;;;;5.55;55.47;101935.63;10307413;28;20047;-62
2022/02/11 22:00:51;;;;;;;8.52;6.20;;;;;;;5.45;55.15;101931.53;10310076;28;20136;-62
2022/02/11 22:05:52;;;;;;;11.85;6.18;;;;;;;5.39;56.23;101934.38;10309766;28;20096;-62
2022/02/11 22:11:00;;;;;;;9.85;5.75;;;;;;;5.39;56.10;101948.47;10314447;28;20057;-62
2022/02/11 22:16:01;;;;;;;11.57;5.88;;;;;;;5.37;56.24;101941.50;10312970;28;20136;-62
2022/02/11 22:21:04;;;;;;;16.80;6.50;;;;;;;5.37;56.77;101934.44;10308322;28;20053;-62
2022/02/11 22:26:06;;;;;;;14.10;6.35;;;;;;;5.43;57.15;101933.38;10312350;28;20049;-62
2022/02/11 22:31:08;;;;;;;11.77;6.18;;;;;;;5.16;57.32;101924.56;10310579;28;20042;-62
2022/02/11 22:36:09;;;;;;;11.65;5.68;;;;;;;5.27;57.44;101936.50;10309195;28;20410;-63
2022/02/11 22:41:11;;;;;;;9.63;5.55;;;;;;;5.30;57.29;101933.78;10305708;28;20058;-63
2022/02/11 22:46:12;;;;;;;11.70;6.30;;;;;;;5.20;58.19;101913.84;10306973;28;20060;-63
2022/02/11 22:56:34;;;;;;;13.85;6.20;;;;;;;4.86;58.83;101925.44;10311089;28;20502;-62
2022/02/11 23:01:35;;;;;;;11.65;8.15;;;;;;;5.11;58.04;101940.53;10299976;28;20054;-62
2022/02/11 23:06:40;;;;;;;16.42;8.30;;;;;;;4.83;58.03;101932.59;10311749;28;20068;-62
2022/02/11 23:11:41;;;;;;;;;;;;;;;4.86;58.50;101945.69;10309720;28;20053;-62
2022/02/11 23:16:44;;;;;;;13.27;7.90;;;;;;;4.78;59.51;101945.91;10313509;28;19932;-62
2022/02/11 23:21:48;;;;;;;16.50;8.13;;;;;;;4.84;59.17;101945.75;10309708;28;20054;-62
2022/02/11 23:26:49;;;;;;;14.73;9.00;;;;;;;4.85;59.88;101942.19;10309697;28;20069;-63
2022/02/11 23:31:50;;;;;;;16.40;9.10;;;;;;;4.80;59.25;101928.25;10310059;28;20042;-64
2022/02/11 23:36:53;;;;;;;15.60;9.07;;;;;;;4.80;59.80;101944.09;10309622;28;20137;-62
2022/02/11 23:41:54;;;;;;;11.25;8.10;;;;;;;4.55;60.01;101939.53;10313228;28;20619;-62
2022/02/11 23:46:56;;;;;;;13.90;8.52;;;;;;;4.54;60.07;101940.44;10310477;28;20572;-62
2022/02/11 23:51:57;;;;;;;18.42;10.02;;;;;;;4.25;59.65;101935.97;10307620;28;20056;-61
2022/02/11 23:56:58;;;;;;;16.42;9.77;;;;;;;4.00;60.35;101936.63;10310565;28;20046;-61
